Time;durP1;ratioP1;P1;durP2;ratioP2;P2;SDS_P1;SDS_P2;PMS_P1;PMS_P2;Temp;Humidity;BMP_temperature;BMP_pressure;BME280_temperature;BME280_humidity;BME280_pressure;Samples;Min_cycle;Max_cycle;Signal;HPM_P1;HPM_P2
2022/08/20 00:00:57;;;;;;;16.27;1.42;;;;;;;13.88;100.00;101027.81;5020427;28;20203;-47
2022/08/20 00:03:32;;;;;;;4.43;1.02;;;;;;;13.83;100.00;101024.94;5022688;28;20152;-48
2022/08/20 00:06:01;;;;;;;4.65;0.82;;;;;;;13.80;100.00;101029.84;5017349;28;20103;-47
2022/08/20 00:08:28;;;;;;;1.85;0.63;;;;;;;13.70;100.00;101020.34;5018021;28;20029;-50
2022/08/20 00:10:54;;;;;;;5.82;0.28;;;;;;;13.69;100.00;101029.38;5019759;28;20079;-52
2022/08/20 00:13:23;;;;;;;0.57;0.10;;;;;;;13.65;100.00;101028.13;5025054;28;20124;-47
2022/08/20 00:15:49;;;;;;;2.25;0.08;;;;;;;13.60;100.00;101027.91;5021594;28;20013;-49
2022/08/20 00:18:15;;;;;;;3.13;0.28;;;;;;;13.61;100.00;101024.22;5013598;28;20429;-47
2022/08/20 00:20:44;;;;;;;3.22;1.27;;;;;;;13.51;100.00;101019.25;5026573;28;20035;-47
2022/08/20 00:23:10;;;;;;;2.67;0.15;;;;;;;13.50;100.00;101019.44;5031727;28;20076;-50
2022/08/20 00:25:35;;;;;;;1.55;0.40;;;;;;;13.41;100.00;101023.31;5025593;28;20022;-48
2022/08/20 00:28:02;;;;;;;3.53;0.20;;;;;;;13.35;100.00;101018.78;5016082;28;20033;-47
2022/08/20 00:30:29;;;;;;;2.83;0.10;;;;;;;13.29;100.00;101023.84;5023628;28;20030;-49
2022/08/20 00:32:58;;;;;;;4.95;1.63;;;;;;;13.33;100.00;101031.44;5021225;28;20112;-49
2022/08/20 00:35:25;;;;;;;3.20;0.30;;;;;;;13.34;100.00;101019.78;5025590;28;20021;-49
2022/08/20 00:37:51;;;;;;;1.55;0.35;;;;;;;13.29;100.00;101025.69;5027582;28;20029;-49
2022/08/20 00:40:20;;;;;;;1.25;0.35;;;;;;;13.31;100.00;101021.81;5012025;28;20029;-50
2022/08/20 00:42:52;;;;;;;5.93;0.85;;;;;;;13.35;100.00;101029.44;5020005;28;20033;-49
2022/08/20 00:45:19;;;;;;;4.38;0.20;;;;;;;13.31;100.00;101026.31;5022020;28;20356;-48
2022/08/20 00:47:45;;;;;;;2.78;1.02;;;;;;;13.26;100.00;101031.38;5017948;28;20025;-51
2022/08/20 00:50:17;;;;;;;3.38;0.95;;;;;;;13.24;100.00;101025.41;5024086;28;20140;-54
2022/08/20 00:52:46;;;;;;;2.47;0.13;;;;;;;13.16;100.00;101029.03;5020202;28;20033;-48
2022/08/20 00:55:12;;;;;;;2.35;0.30;;;;;;;13.20;100.00;101030.31;5015149;28;20446;-47
2022/08/20 00:57:44;;;;;;;2.60;0.15;;;;;;;13.14;100.00;101025.78;5024261;28;20127;-53
2022/08/20 01:00:16;;;;;;;1.80;0.43;;;;;;;13.00;100.00;101026.69;5028214;28;20044;-54
2022/08/20 01:02:42;;;;;;;4.43;1.00;;;;;;;12.98;100.00;101026.88;5033185;28;20164;-47
2022/08/20 01:05:09;;;;;;;2.88;0.60;;;;;;;12.88;100.00;101026.38;5023799;28;20112;-47
2022/08/20 01:07:36;;;;;;;0.63;0.00;;;;;;;12.77;100.00;101025.06;5026422;28;20324;-54
2022/08/20 01:10:24;;;;;;;5.50;1.08;;;;;;;12.69;100.00;101029.72;5024956;28;20026;-49
2022/08/20 01:12:52;;;;;;;2.05;0.20;;;;;;;12.61;100.00;101031.47;5019958;28;20053;-49
2022/08/20 01:15:22;;;;;;;1.55;0.20;;;;;;;12.62;100.00;101034.97;5025824;28;20026;-49
2022/08/20 01:17:50;;;;;;;2.67;0.20;;;;;;;12.55;100.00;101029.59;5018295;28;20095;-48
2022/08/20 01:20:20;;;;;;;1.42;0.55;;;;;;;12.53;100.00;101028.97;5025544;28;20048;-51
2022/08/20 01:25:45;;;;;;;3.75;0.17;;;;;;;12.42;100.00;101029.47;5029616;28;20048;-48
2022/08/20 01:28:13;;;;;;;2.58;0.20;;;;;;;12.39;100.00;101028.00;5021224;28;20037;-50
2022/08/20 01:30:40;;;;;;;2.15;0.30;;;;;;;12.33;100.00;101038.56;5033814;28;20036;-47
2022/08/20 01:33:05;;;;;;;5.20;0.20;;;;;;;12.28;100.00;101052.44;5024657;28;20151;-48
2022/08/20 01:35:35;;;;;;;2.30;0.30;;;;;;;12.26;100.00;101046.47;5025858;28;20044;-48
2022/08/20 01:38:00;;;;;;;5.18;0.52;;;;;;;12.31;100.00;101052.03;5020504;28;20098;-48
2022/08/20 01:40:47;;;;;;;7.88;0.20;;;;;;;12.41;100.00;101049.91;5020561;28;20021;-47
2022/08/20 01:43:13;;;;;;;2.33;0.32;;;;;;;12.37;100.00;101051.31;5030062;28;20453;-47
2022/08/20 01:45:39;;;;;;;2.88;0.22;;;;;;;12.25;100.00;101057.31;5031836;28;20041;-50
2022/08/20 01:48:04;;;;;;;6.22;0.57;;;;;;;12.09;100.00;101048.53;5028105;28;20038;-49
2022/08/20 01:50:32;;;;;;;4.70;0.32;;;;;;;12.03;100.00;101053.78;5023128;28;20171;-47
2022/08/20 01:53:27;;;;;;;2.70;0.35;;;;;;;11.92;100.00;101055.09;5029892;28;20029;-48
2022/08/20 01:55:52;;;;;;;1.95;0.30;;;;;;;11.90;100.00;101063.25;5019394;28;20038;-49
2022/08/20 01:58:18;;;;;;;0.80;0.20;;;;;;;11.86;100.00;101067.28;5016622;28;20056;-48
2022/08/20 02:00:43;;;;;;;1.75;0.10;;;;;;;11.77;100.00;101065.69;5022404;28;20144;-49
2022/08/20 02:03:09;;;;;;;0.70;0.43;;;;;;;11.66;100.00;101058.19;5027734;28;20022;-48
2022/08/20 02:05:35;;;;;;;10.48;0.85;;;;;;;11.59;100.00;101066.09;5023282;28;20033;-49
2022/08/20 02:08:01;;;;;;;4.07;0.35;;;;;;;11.57;100.00;101063.59;5022985;28;20171;-52
2022/08/20 02:10:30;;;;;;;5.70;0.70;;;;;;;11.50;100.00;101062.69;5018917;28;20065;-47
2022/08/20 02:12:55;;;;;;;2.00;0.20;;;;;;;11.38;100.00;101061.47;5030249;28;20405;-47
2022/08/20 02:15:20;;;;;;;8.88;1.98;;;;;;;11.19;100.00;101062.00;5027838;28;20025;-50
2022/08/20 02:17:47;;;;;;;1.17;0.03;;;;;;;10.99;100.00;101061.69;5027879;28;20116;-52
2022/08/20 02:20:16;;;;;;;3.13;0.90;;;;;;;10.82;100.00;101056.53;5019879;28;20033;-53
2022/08/20 02:22:51;;;;;;;0.55;0.40;;;;;;;10.69;100.00;101059.78;5021800;28;20060;-48
2022/08/20 02:25:19;;;;;;;2.60;1.08;;;;;;;10.60;100.00;101063.50;5015861;28;20030;-49
2022/08/20 02:27:47;;;;;;;2.10;0.55;;;;;;;10.58;100.00;101056.72;5024740;28;20125;-50
2022/08/20 02:30:17;;;;;;;2.50;1.38;;;;;;;10.54;100.00;101056.25;5024185;28;20400;-49
2022/08/20 02:32:43;;;;;;;3.20;0.40;;;;;;;10.47;100.00;101057.94;5031675;28;20374;-52
2022/08/20 02:35:12;;;;;;;5.10;0.20;;;;;;;10.44;100.00;101055.66;5016894;28;20034;-52
2022/08/20 02:37:41;;;;;;;4.63;0.57;;;;;;;10.42;100.00;101063.78;5031102;28;20029;-51
2022/08/20 02:40:09;;;;;;;7.38;1.45;;;;;;;10.36;100.00;101055.72;5027682;28;20030;-51
2022/08/20 02:42:35;;;;;;;2.88;0.15;;;;;;;10.34;100.00;101052.41;5015466;28;20442;-51
2022/08/20 02:45:02;;;;;;;1.95;0.30;;;;;;;10.32;100.00;101059.69;5026733;28;20026;-52
2022/08/20 02:47:27;;;;;;;1.90;0.15;;;;;;;10.29;100.00;101058.22;5021611;28;20040;-49
2022/08/20 02:49:53;;;;;;;1.30;0.63;;;;;;;10.29;100.00;101062.72;5024637;28;20037;-50
2022/08/20 02:52:20;;;;;;;3.65;0.20;;;;;;;10.22;100.00;101055.44;5019769;28;20085;-47
2022/08/20 02:54:47;;;;;;;1.58;0.40;;;;;;;10.19;100.00;101063.72;5029262;28;20775;-50
2022/08/20 02:57:15;;;;;;;3.65;0.63;;;;;;;10.19;100.00;101061.06;5029338;28;20055;-49
2022/08/20 02:59:42;;;;;;;0.75;0.10;;;;;;;10.20;100.00;101061.91;5024660;28;20023;-51
2022/08/20 03:02:08;;;;;;;1.77;0.63;;;;;;;10.18;100.00;101061.25;5021310;28;20419;-49
2022/08/20 03:04:33;;;;;;;3.03;0.50;;;;;;;10.10;100.00;101059.47;5018963;28;20024;-50
2022/08/20 03:06:58;;;;;;;0.20;0.00;;;;;;;10.03;100.00;101063.81;5026645;28;20483;-47
2022/08/20 03:09:24;;;;;;;2.60;0.45;;;;;;;9.96;100.00;101060.19;5037979;28;20049;-49
2022/08/20 03:11:50;;;;;;;4.85;0.40;;;;;;;9.90;100.00;101060.88;5025450;28;20064;-52
2022/08/20 03:14:15;;;;;;;3.95;0.32;;;;;;;9.80;100.00;101056.63;5023053;28;20030;-47
2022/08/20 03:16:41;;;;;;;3.30;0.20;;;;;;;9.68;100.00;101057.16;5020988;28;20132;-49
2022/08/20 03:19:07;;;;;;;0.82;0.15;;;;;;;9.58;100.00;101052.91;5018097;28;20034;-51
2022/08/20 03:21:32;;;;;;;1.10;0.10;;;;;;;9.56;100.00;101062.81;5019999;28;20079;-50
2022/08/20 03:23:58;;;;;;;1.55;0.30;;;;;;;9.48;100.00;101062.03;5024812;28;20029;-48
2022/08/20 03:26:23;;;;;;;0.47;0.20;;;;;;;9.43;100.00;101061.72;5024627;28;20124;-47
2022/08/20 03:28:48;;;;;;;4.03;0.20;;;;;;;9.41;100.00;101058.41;5028232;28;20103;-48
2022/08/20 03:31:14;;;;;;;1.65;0.50;;;;;;;9.35;100.00;101062.56;5014610;28;20371;-49
2022/08/20 03:33:40;;;;;;;3.75;0.65;;;;;;;9.31;100.00;101064.69;5020399;28;20343;-51
2022/08/20 03:36:06;;;;;;;1.55;0.35;;;;;;;9.32;100.00;101060.22;5028027;28;20375;-48
2022/08/20 03:38:32;;;;;;;0.70;0.65;;;;;;;9.27;100.00;101066.03;5014902;28;20025;-47
2022/08/20 03:40:57;;;;;;;1.27;0.20;;;;;;;9.23;100.00;101056.78;5020006;28;20406;-49
2022/08/20 03:43:23;;;;;;;6.35;0.20;;;;;;;9.21;100.00;101058.75;5015816;28;20030;-48
2022/08/20 03:45:49;;;;;;;1.95;0.85;;;;;;;9.20;100.00;101062.41;5025471;28;20459;-47
2022/08/20 03:48:17;;;;;;;4.30;0.70;;;;;;;9.21;100.00;101058.75;5028499;28;20079;-48
2022/08/20 03:50:44;;;;;;;2.33;1.10;;;;;;;9.20;100.00;101053.66;5025798;28;20375;-47
2022/08/20 03:53:11;;;;;;;2.72;0.15;;;;;;;9.19;100.00;101047.53;5019391;28;20036;-49
2022/08/20 03:55:38;;;;;;;5.18;0.40;;;;;;;9.15;100.00;101051.50;5026542;28;20359;-47
2022/08/20 03:58:06;;;;;;;5.25;1.95;;;;;;;9.07;100.00;101054.16;5024461;28;20113;-47
2022/08/20 04:00:39;;;;;;;1.67;0.43;;;;;;;9.00;100.00;101047.88;5024590;28;20072;-48
2022/08/20 04:03:07;;;;;;;3.92;0.45;;;;;;;8.93;100.00;101059.13;5016500;28;20362;-48
2022/08/20 04:05:33;;;;;;;2.10;0.28;;;;;;;8.89;100.00;101060.44;5016894;28;20076;-47
2022/08/20 04:08:00;;;;;;;3.83;0.20;;;;;;;8.89;100.00;101057.81;5012493;28;20081;-48
2022/08/20 04:10:26;;;;;;;4.25;1.15;;;;;;;8.88;100.00;101065.91;5030057;28;20021;-48
2022/08/20 04:12:51;;;;;;;1.33;0.00;;;;;;;8.84;100.00;101067.22;5024996;28;20073;-47
2022/08/20 04:15:18;;;;;;;0.93;0.60;;;;;;;8.78;100.00;101065.22;5031524;28;20093;-47
2022/08/20 04:17:47;;;;;;;4.28;0.52;;;;;;;8.78;100.00;101070.50;5024216;28;20032;-47
2022/08/20 04:20:22;;;;;;;1.55;0.13;;;;;;;8.77;100.00;101071.53;5021081;28;20043;-48
2022/08/20 04:22:49;;;;;;;1.73;0.38;;;;;;;8.73;100.00;101068.41;5024532;28;20034;-48
2022/08/20 04:25:14;;;;;;;0.50;0.00;;;;;;;8.66;100.00;101068.22;5020775;28;20034;-47
2022/08/20 04:27:40;;;;;;;1.20;0.00;;;;;;;8.60;100.00;101068.06;5021651;28;20030;-47
2022/08/20 04:30:09;;;;;;;1.67;0.40;;;;;;;8.55;100.00;101067.72;5017348;28;20065;-47
2022/08/20 04:32:35;;;;;;;3.35;0.40;;;;;;;8.54;100.00;101069.50;5016481;28;20080;-49
2022/08/20 04:35:02;;;;;;;2.05;0.25;;;;;;;8.56;100.00;101069.34;5020222;28;20034;-48
2022/08/20 04:37:29;;;;;;;2.17;0.10;;;;;;;8.54;100.00;101074.78;5010143;28;20054;-49
2022/08/20 04:42:38;;;;;;;3.83;0.10;;;;;;;8.46;100.00;101080.91;5026872;28;20052;-47
2022/08/20 04:45:05;;;;;;;0.80;0.25;;;;;;;8.46;100.00;101083.53;5017283;28;20402;-47
2022/08/20 04:47:34;;;;;;;3.05;0.10;;;;;;;8.42;100.00;101082.22;5019914;28;20038;-47
2022/08/20 04:50:00;;;;;;;2.72;0.47;;;;;;;8.42;100.00;101082.22;5025970;28;20017;-47
2022/08/20 04:52:27;;;;;;;2.47;0.10;;;;;;;8.46;100.00;101080.06;5025467;28;20041;-52
2022/08/20 04:54:55;;;;;;;0.85;0.13;;;;;;;8.46;100.00;101086.19;5026525;28;20029;-47
2022/08/20 04:57:22;;;;;;;5.22;1.45;;;;;;;8.45;100.00;101089.81;5026319;28;20517;-47
2022/08/20 04:59:50;;;;;;;1.30;0.30;;;;;;;8.45;100.00;101095.09;5026682;28;20119;-49
2022/08/20 05:02:17;;;;;;;2.05;0.30;;;;;;;8.47;100.00;101103.72;5024958;28;20037;-49
2022/08/20 05:04:42;;;;;;;2.85;0.20;;;;;;;8.55;100.00;101107.38;5025108;28;20075;-48
2022/08/20 05:07:10;;;;;;;2.28;1.10;;;;;;;8.61;100.00;101099.59;5022637;28;20398;-53
2022/08/20 05:09:35;;;;;;;2.53;0.38;;;;;;;8.82;100.00;101107.06;5017511;28;20065;-49
2022/08/20 05:12:00;;;;;;;2.33;0.60;;;;;;;8.98;100.00;101116.00;5022156;28;20128;-50
2022/08/20 05:14:28;;;;;;;4.78;0.80;;;;;;;9.07;100.00;101107.06;5026579;28;20511;-48
2022/08/20 05:16:56;;;;;;;1.75;0.50;;;;;;;9.22;100.00;101112.53;5025405;28;20144;-48
2022/08/20 05:19:21;;;;;;;3.90;1.58;;;;;;;9.37;100.00;101119.63;5019473;28;20029;-48
2022/08/20 05:21:47;;;;;;;1.20;0.15;;;;;;;9.53;100.00;101115.31;5019231;28;20033;-47
2022/08/20 05:24:12;;;;;;;1.92;0.38;;;;;;;9.68;100.00;101110.09;5020576;28;20029;-47
2022/08/20 05:26:38;;;;;;;5.50;0.10;;;;;;;9.76;100.00;101108.28;5023127;28;20162;-47
2022/08/20 05:29:05;;;;;;;0.20;0.00;;;;;;;9.78;100.00;101102.81;5021007;28;20030;-53
2022/08/20 05:31:32;;;;;;;0.90;0.55;;;;;;;9.78;100.00;101101.00;5019707;28;20038;-51
2022/08/20 05:33:57;;;;;;;3.67;0.47;;;;;;;9.77;100.00;101098.50;5025312;28;20025;-51
2022/08/20 05:36:23;;;;;;;4.68;0.28;;;;;;;9.85;100.00;101105.59;5012820;28;20489;-47
2022/08/20 05:38:48;;;;;;;0.30;0.00;;;;;;;9.97;100.00;101104.25;5021420;28;20389;-50
2022/08/20 05:41:14;;;;;;;0.57;0.17;;;;;;;9.96;100.00;101106.03;5013220;28;20044;-48
2022/08/20 05:43:40;;;;;;;1.55;0.13;;;;;;;9.83;100.00;101106.63;5025345;28;20036;-48
2022/08/20 05:46:05;;;;;;;2.65;0.32;;;;;;;9.72;100.00;101109.59;5016186;28;20028;-51
2022/08/20 05:48:34;;;;;;;1.27;0.17;;;;;;;9.66;100.00;101109.47;5023680;28;20036;-47
2022/08/20 05:50:59;;;;;;;1.70;0.35;;;;;;;9.63;100.00;101108.00;5018604;28;20037;-48
2022/08/20 05:53:26;;;;;;;2.38;0.45;;;;;;;9.63;100.00;101110.66;5016208;28;20470;-47
2022/08/20 05:55:52;;;;;;;4.75;0.28;;;;;;;9.65;100.00;101113.94;5021519;28;20021;-48
2022/08/20 05:58:24;;;;;;;5.97;0.82;;;;;;;9.66;100.00;101112.94;5022713;28;20286;-47
2022/08/20 06:00:51;;;;;;;2.17;0.77;;;;;;;9.72;100.00;101116.72;5017612;28;20029;-50
2022/08/20 06:06:00;;;;;;;2.28;0.20;;;;;;;9.91;100.00;101123.44;5018818;28;20100;-48
2022/08/20 06:08:26;;;;;;;0.95;0.13;;;;;;;10.04;100.00;101131.69;5024610;28;20021;-53
2022/08/20 06:10:51;;;;;;;1.45;0.65;;;;;;;10.14;100.00;101131.47;5019952;28;20105;-47
2022/08/20 06:13:17;;;;;;;3.58;1.27;;;;;;;10.22;100.00;101121.69;5026565;28;20041;-48
2022/08/20 06:15:42;;;;;;;1.65;0.15;;;;;;;10.29;100.00;101124.50;5014278;28;20030;-51
2022/08/20 06:18:08;;;;;;;2.25;0.10;;;;;;;10.37;100.00;101113.84;5016287;28;20037;-48
2022/08/20 06:20:35;;;;;;;6.90;0.50;;;;;;;10.56;100.00;101125.00;5028504;28;20364;-48
2022/08/20 06:23:00;;;;;;;2.90;0.40;;;;;;;10.62;100.00;101125.13;5018961;28;20037;-51
2022/08/20 06:25:26;;;;;;;1.23;0.25;;;;;;;10.78;100.00;101118.06;5029534;28;20025;-50
2022/08/20 06:27:51;;;;;;;0.50;0.50;;;;;;;11.06;100.00;101124.50;5023733;28;20478;-54
2022/08/20 06:30:17;;;;;;;0.98;0.30;;;;;;;11.28;100.00;101133.44;5015681;28;20034;-47
2022/08/20 06:32:42;;;;;;;4.05;0.85;;;;;;;11.46;100.00;101138.41;5024887;28;20029;-50
2022/08/20 06:35:09;;;;;;;3.80;0.68;;;;;;;11.65;100.00;101141.56;5017558;28;20033;-52
2022/08/20 06:37:36;;;;;;;2.95;0.40;;;;;;;11.74;100.00;101135.13;5013320;28;20394;-49
2022/08/20 06:40:07;;;;;;;4.20;0.43;;;;;;;11.95;100.00;101132.63;5027001;28;20413;-48
2022/08/20 06:42:33;;;;;;;4.03;0.82;;;;;;;12.20;100.00;101140.28;5021971;28;20119;-53
2022/08/20 06:44:59;;;;;;;6.30;0.85;;;;;;;12.35;100.00;101127.78;5025022;28;20393;-55
2022/08/20 06:47:24;;;;;;;4.10;0.30;;;;;;;12.34;100.00;101134.13;5025344;28;20030;-50
2022/08/20 06:49:50;;;;;;;2.42;0.20;;;;;;;12.40;100.00;101130.72;5013247;28;20178;-48
2022/08/20 06:52:16;;;;;;;3.78;0.80;;;;;;;12.52;100.00;101135.53;5023466;28;20044;-52
2022/08/20 06:54:44;;;;;;;3.55;1.30;;;;;;;12.64;100.00;101132.19;5028210;28;20371;-50
2022/08/20 06:57:10;;;;;;;2.92;0.30;;;;;;;12.77;100.00;101136.00;5019956;28;20030;-51
2022/08/20 06:59:35;;;;;;;6.03;0.73;;;;;;;12.91;100.00;101128.97;5008773;28;20021;-50
2022/08/20 07:02:01;;;;;;;6.07;1.13;;;;;;;13.03;100.00;101136.25;5020743;28;20362;-48
2022/08/20 07:04:27;;;;;;;5.65;0.55;;;;;;;13.23;100.00;101139.09;5017479;28;20030;-49
2022/08/20 07:06:54;;;;;;;9.00;1.17;;;;;;;13.43;100.00;101138.47;5027087;28;20026;-51
2022/08/20 07:09:20;;;;;;;3.92;0.55;;;;;;;13.60;100.00;101129.16;5021683;28;20037;-48
2022/08/20 07:11:47;;;;;;;3.13;0.47;;;;;;;13.72;100.00;101129.44;5027326;28;20029;-48
2022/08/20 07:14:13;;;;;;;9.35;0.80;;;;;;;13.80;100.00;101133.78;5027436;28;20455;-49
2022/08/20 07:16:39;;;;;;;4.10;0.70;;;;;;;13.89;100.00;101135.28;5020562;28;20040;-48
2022/08/20 07:19:05;;;;;;;3.67;0.60;;;;;;;14.04;100.00;101138.63;5030439;28;20038;-49
2022/08/20 07:21:31;;;;;;;3.08;0.57;;;;;;;14.14;100.00;101131.06;5017609;28;20022;-49
2022/08/20 07:23:56;;;;;;;7.38;0.80;;;;;;;14.34;100.00;101123.16;5024452;28;20056;-50
2022/08/20 07:26:22;;;;;;;1.95;0.60;;;;;;;14.52;100.00;101122.59;5027156;28;20049;-48
2022/08/20 07:28:47;;;;;;;4.97;0.60;;;;;;;14.72;100.00;101119.19;5018385;28;20087;-48
2022/08/20 07:33:57;;;;;;;5.45;0.75;;;;;;;14.96;100.00;101099.09;5036444;28;20044;-47
2022/08/20 07:36:22;;;;;;;2.25;0.60;;;;;;;15.06;100.00;101104.84;5032616;28;20021;-49
2022/08/20 07:38:49;;;;;;;6.75;0.73;;;;;;;15.17;100.00;101108.75;5018787;28;20037;-47
2022/08/20 07:41:15;;;;;;;4.55;0.93;;;;;;;15.31;100.00;101099.72;5015477;28;20463;-50
2022/08/20 07:43:44;;;;;;;3.38;1.27;;;;;;;15.46;100.00;101110.16;5027736;28;20045;-46
2022/08/20 07:46:09;;;;;;;4.93;0.47;;;;;;;15.66;100.00;101099.44;5020646;28;20032;-50
2022/08/20 07:48:40;;;;;;;9.02;1.13;;;;;;;15.84;100.00;101098.81;5017457;28;20029;-51
2022/08/20 07:51:07;;;;;;;2.95;0.30;;;;;;;16.02;100.00;101092.78;5024376;28;20116;-51
2022/08/20 07:53:35;;;;;;;2.90;0.82;;;;;;;16.41;100.00;101085.59;5016588;28;20041;-50
2022/08/20 07:56:04;;;;;;;4.78;0.98;;;;;;;16.87;100.00;101066.56;5021000;28;20048;-48
2022/08/20 07:58:30;;;;;;;4.72;0.60;;;;;;;17.33;100.00;101057.28;5025302;28;20104;-53
2022/08/20 08:00:55;;;;;;;4.30;0.30;;;;;;;17.51;100.00;101040.41;5013936;28;20583;-48
2022/08/20 08:03:20;;;;;;;3.88;1.50;;;;;;;17.76;100.00;101044.84;5023917;28;20095;-51
2022/08/20 08:05:49;;;;;;;3.30;0.30;;;;;;;17.78;100.00;101048.13;5023690;28;20493;-46
2022/08/20 08:08:27;;;;;;;2.63;0.90;;;;;;;17.81;100.00;101053.91;5022344;28;20076;-48
2022/08/20 08:10:56;;;;;;;1.10;0.50;;;;;;;17.61;100.00;101059.47;5019455;28;20050;-48
2022/08/20 08:13:25;;;;;;;5.63;0.82;;;;;;;17.57;100.00;101049.41;5017765;28;20383;-46
2022/08/20 08:15:56;;;;;;;7.10;1.20;;;;;;;17.38;100.00;101056.63;5020259;28;20053;-48
2022/08/20 08:18:28;;;;;;;4.03;1.00;;;;;;;17.43;100.00;101056.78;5023910;28;20112;-49
2022/08/20 08:20:54;;;;;;;4.03;0.20;;;;;;;17.47;100.00;101063.31;5023151;28;20470;-48
2022/08/20 08:23:21;;;;;;;7.40;0.95;;;;;;;17.48;100.00;101061.44;5025940;28;20028;-48
2022/08/20 08:25:50;;;;;;;9.27;1.52;;;;;;;17.44;100.00;101061.09;5017864;28;20554;-51
2022/08/20 08:28:17;;;;;;;3.05;0.88;;;;;;;17.43;100.00;101062.16;5023823;28;20492;-52
2022/08/20 08:30:45;;;;;;;6.93;1.63;;;;;;;17.41;100.00;101051.63;5022149;28;20026;-50
2022/08/20 08:33:31;;;;;;;3.75;0.50;;;;;;;17.33;100.00;101053.78;5018365;28;20116;-52
2022/08/20 08:36:04;;;;;;;6.15;0.95;;;;;;;17.26;100.00;101047.69;5024072;28;20501;-53
2022/08/20 08:38:34;;;;;;;3.33;1.10;;;;;;;17.34;100.00;101047.38;5025017;28;20536;-46
2022/08/20 08:41:11;;;;;;;1.30;0.25;;;;;;;17.65;100.00;101041.88;5026396;28;20432;-52
2022/08/20 08:43:36;;;;;;;6.40;1.08;;;;;;;18.03;100.00;101040.00;5019928;28;20088;-51
2022/08/20 08:46:07;;;;;;;4.85;1.38;;;;;;;18.47;100.00;101043.31;5016939;28;20026;-48
2022/08/20 08:48:34;;;;;;;;;;;;;;;18.55;100.00;101034.91;5024924;28;20238;-51
2022/08/20 08:51:06;;;;;;;3.35;0.25;;;;;;;18.64;100.00;101038.06;5020288;28;19921;-51
2022/08/20 08:53:36;;;;;;;;;;;;;;;18.84;100.00;101022.50;5020227;28;20078;-47
2022/08/20 08:56:04;;;;;;;3.97;0.55;;;;;;;19.21;100.00;101024.97;5017838;28;19918;-49
2022/08/20 08:58:32;;;;;;;3.40;0.22;;;;;;;19.57;100.00;101017.66;5019015;28;20532;-50
2022/08/20 09:01:01;;;;;;;3.80;0.55;;;;;;;19.82;100.00;101020.88;5023201;28;20319;-51
2022/08/20 09:03:30;;;;;;;3.15;0.63;;;;;;;20.05;100.00;101019.97;5019659;28;20022;-53
2022/08/20 09:06:01;;;;;;;1.27;0.17;;;;;;;19.98;100.00;101029.25;5016707;28;20053;-50
2022/08/20 09:08:31;;;;;;;4.25;0.22;;;;;;;19.77;100.00;101018.13;5024001;28;20021;-52
2022/08/20 09:11:05;;;;;;;1.40;0.10;;;;;;;19.60;100.00;101027.94;5017039;28;20030;-48
2022/08/20 09:13:30;;;;;;;2.03;0.57;;;;;;;19.32;100.00;101031.38;5006227;28;20085;-48
2022/08/20 09:15:56;;;;;;;8.63;0.50;;;;;;;19.10;100.00;101023.09;5025183;28;20446;-49
2022/08/20 09:18:22;;;;;;;5.93;0.63;;;;;;;18.95;100.00;101023.56;5018783;28;20490;-50
2022/08/20 09:20:47;;;;;;;1.73;0.55;;;;;;;18.96;100.00;101023.31;5018219;28;20048;-49
2022/08/20 09:23:12;;;;;;;9.57;0.63;;;;;;;19.00;100.00;101028.22;5014099;28;20030;-51
2022/08/20 09:25:38;;;;;;;1.95;0.10;;;;;;;19.06;100.00;101024.63;5024072;28;20605;-52
2022/08/20 09:28:03;;;;;;;2.40;0.30;;;;;;;19.11;100.00;101020.19;5022445;28;20431;-50
2022/08/20 09:30:28;;;;;;;3.00;0.57;;;;;;;19.03;100.00;101022.41;5017949;28;20034;-48
2022/08/20 09:32:57;;;;;;;3.80;0.32;;;;;;;18.94;100.00;101017.34;5022561;28;20108;-50
2022/08/20 09:35:22;;;;;;;0.73;0.43;;;;;;;18.91;100.00;101020.50;5010764;28;20018;-52
2022/08/20 09:37:47;;;;;;;3.97;0.30;;;;;;;19.01;100.00;101011.06;5012802;28;20078;-51
2022/08/20 09:40:13;;;;;;;3.17;0.38;;;;;;;19.13;100.00;101007.31;5011958;28;20090;-52
2022/08/20 09:42:38;;;;;;;3.42;0.20;;;;;;;19.30;100.00;101003.91;5012266;28;20024;-54
2022/08/20 09:45:05;;;;;;;3.70;0.88;;;;;;;19.76;100.00;101003.00;5012919;28;20029;-52
2022/08/20 09:47:30;;;;;;;3.20;0.70;;;;;;;20.25;100.00;101006.06;5021161;28;20029;-49
2022/08/20 09:49:56;;;;;;;4.10;0.80;;;;;;;20.44;100.00;101000.44;5028068;28;20040;-50
2022/08/20 09:52:26;;;;;;;2.78;0.63;;;;;;;20.34;100.00;100993.03;5023674;28;20104;-51
2022/08/20 09:54:56;;;;;;;6.37;0.70;;;;;;;20.35;100.00;100997.34;5019741;28;20378;-50
2022/08/20 09:57:22;;;;;;;4.00;0.52;;;;;;;20.03;100.00;100988.97;5024507;28;20397;-47
2022/08/20 09:59:53;;;;;;;2.35;0.20;;;;;;;20.27;100.00;100995.88;5021429;28;20026;-50
2022/08/20 10:02:18;;;;;;;2.47;0.38;;;;;;;20.81;100.00;100981.16;5026553;28;20037;-47
2022/08/20 10:04:44;;;;;;;2.33;0.17;;;;;;;21.12;100.00;100983.22;5029416;28;20029;-47
2022/08/20 10:07:09;;;;;;;1.88;0.32;;;;;;;21.09;100.00;100972.09;5022274;28;20437;-52
2022/08/20 10:09:36;;;;;;;2.97;0.20;;;;;;;21.15;100.00;100975.69;5019693;28;20045;-53
2022/08/20 10:12:02;;;;;;;1.73;0.20;;;;;;;21.06;100.00;100969.91;5019517;28;20041;-49
2022/08/20 10:14:27;;;;;;;5.30;0.20;;;;;;;20.92;100.00;100972.94;5007728;28;20037;-49
2022/08/20 10:16:57;;;;;;;1.52;0.40;;;;;;;20.56;100.00;100976.19;5024480;28;20406;-48
2022/08/20 10:19:23;;;;;;;1.13;0.10;;;;;;;20.47;100.00;100971.16;5025341;28;20052;-50
2022/08/20 10:21:52;;;;;;;2.22;0.30;;;;;;;20.37;100.00;100962.13;5028612;28;20142;-51
2022/08/20 10:24:18;;;;;;;1.88;0.10;;;;;;;20.39;100.00;100965.34;5025728;28;20467;-53
2022/08/20 10:26:44;;;;;;;1.58;0.20;;;;;;;20.30;100.00;100966.84;5029834;28;20029;-48
2022/08/20 10:29:10;;;;;;;1.98;0.20;;;;;;;20.17;100.00;100967.97;5029346;28;20453;-49
2022/08/20 10:31:35;;;;;;;4.28;0.40;;;;;;;20.19;100.00;100965.84;5009001;28;20034;-48
2022/08/20 10:34:00;;;;;;;2.17;0.10;;;;;;;20.20;100.00;100962.91;5012930;28;20338;-50
2022/08/20 10:36:26;;;;;;;1.80;0.20;;;;;;;20.48;100.00;100961.22;5019749;28;20430;-48
2022/08/20 10:38:51;;;;;;;1.98;0.95;;;;;;;20.49;100.00;100947.47;5012537;28;20692;-52
2022/08/20 10:41:16;;;;;;;1.13;0.00;;;;;;;20.84;100.00;100959.09;5018033;28;20032;-51
2022/08/20 10:43:42;;;;;;;1.95;0.10;;;;;;;21.17;100.00;100952.81;5011577;28;20080;-54
2022/08/20 10:46:08;;;;;;;1.25;0.47;;;;;;;21.39;100.00;100957.41;5019296;28;20033;-54
2022/08/20 10:48:33;;;;;;;2.75;1.30;;;;;;;21.75;100.00;100951.34;5013731;28;20029;-56
2022/08/20 10:50:59;;;;;;;4.47;0.20;;;;;;;22.08;100.00;100941.41;5017661;28;20151;-56
2022/08/20 10:53:24;;;;;;;0.90;0.00;;;;;;;22.39;100.00;100930.91;5020652;28;20030;-49
2022/08/20 10:55:52;;;;;;;1.98;0.43;;;;;;;22.56;100.00;100945.06;5020532;28;20114;-55
2022/08/20 10:58:17;;;;;;;4.35;0.20;;;;;;;22.18;100.00;100941.50;5017921;28;20029;-55
2022/08/20 11:00:44;;;;;;;3.22;0.45;;;;;;;21.68;100.00;100952.59;5023989;28;20117;-56
2022/08/20 11:03:09;;;;;;;0.40;0.10;;;;;;;21.53;100.00;100945.19;5019451;28;20516;-48
2022/08/20 11:05:35;;;;;;;4.13;0.55;;;;;;;21.08;100.00;100943.50;5019734;28;20043;-54
2022/08/20 11:08:01;;;;;;;3.30;0.40;;;;;;;21.05;100.00;100949.41;5022047;28;20402;-49
2022/08/20 11:10:29;;;;;;;0.82;0.20;;;;;;;21.24;100.00;100949.91;5019750;28;20026;-52
2022/08/20 11:12:54;;;;;;;8.07;0.20;;;;;;;21.77;100.00;100941.13;5018683;28;20115;-51
2022/08/20 11:15:20;;;;;;;2.10;0.10;;;;;;;22.67;100.00;100937.03;5036161;28;20037;-56
2022/08/20 11:17:45;;;;;;;2.28;0.10;;;;;;;23.05;100.00;100911.56;5030823;28;20043;-57
2022/08/20 11:20:13;;;;;;;0.30;0.10;;;;;;;23.08;100.00;100927.28;5016833;28;20519;-57
2022/08/20 11:22:38;;;;;;;1.00;0.30;;;;;;;22.90;100.00;100928.53;5018352;28;20398;-53
2022/08/20 11:25:05;;;;;;;1.92;0.22;;;;;;;22.44;100.00;100928.22;5016939;28;20867;-55
2022/08/20 11:27:34;;;;;;;1.98;0.25;;;;;;;22.17;100.00;100926.34;5020579;28;20210;-57
2022/08/20 11:29:59;;;;;;;2.70;0.32;;;;;;;22.17;100.00;100925.53;5009648;28;20462;-53